createdAt,value
2023-02-11T00:01:17.281Z,80.20
2023-02-11T00:03:29.097Z,70.70
2023-02-11T00:05:41.268Z,80.10
2023-02-11T00:07:53.369Z,71.30
2023-02-11T00:10:08.125Z,72.50
2023-02-11T00:12:19.915Z,82.20
2023-02-11T00:14:32.023Z,79.90
2023-02-11T00:16:44.246Z,77.50
2023-02-11T00:18:56.310Z,78.40
2023-02-11T00:21:10.454Z,82.30
2023-02-11T00:23:22.048Z,70.20
2023-02-11T00:25:34.659Z,77.40
2023-02-11T00:27:46.233Z,78.00
2023-02-11T00:29:58.226Z,74.70
2023-02-11T00:32:11.244Z,77.60
2023-02-11T00:34:23.035Z,69.90
2023-02-11T00:36:35.028Z,75.20
2023-02-11T00:38:48.576Z,79.80
2023-02-11T00:41:01.270Z,72.30
2023-02-11T00:43:13.162Z,80.00
2023-02-11T00:45:25.262Z,79.50
2023-02-11T00:47:37.251Z,78.00
2023-02-11T00:49:49.246Z,80.00
2023-02-11T00:52:01.447Z,77.10
2023-02-11T00:54:13.956Z,80.80
2023-02-11T00:56:26.468Z,77.70
2023-02-11T00:58:38.662Z,90.10
2023-02-11T01:00:50.552Z,81.10
2023-02-11T01:03:02.765Z,75.10
2023-02-11T01:05:14.997Z,80.50
2023-02-11T01:07:28.788Z,70.90
2023-02-11T01:09:40.992Z,76.00
2023-02-11T01:11:52.679Z,75.30
2023-02-11T01:14:04.673Z,77.40
2023-02-11T01:16:17.586Z,81.50
2023-02-11T01:18:30.509Z,83.10
2023-02-11T01:20:43.424Z,85.60
2023-02-11T01:22:55.325Z,79.60
2023-02-11T01:25:08.642Z,80.50
2023-02-11T01:27:20.738Z,77.60
2023-02-11T01:29:32.631Z,82.30
2023-02-11T01:31:44.436Z,83.70
2023-02-11T01:33:56.827Z,80.40
2023-02-11T01:36:09.237Z,69.80
2023-02-11T01:38:24.407Z,80.70
2023-02-11T01:40:38.139Z,82.30
2023-02-11T01:42:51.141Z,75.60
2023-02-11T01:45:42.365Z,79.20
2023-02-11T01:47:54.583Z,86.50
2023-02-11T01:50:06.771Z,82.70
2023-02-11T01:52:26.343Z,78.00
2023-02-11T01:55:02.911Z,81.50
2023-02-11T01:57:25.132Z,83.60
2023-02-11T01:59:49.478Z,84.90
2023-02-11T02:02:08.542Z,82.10
2023-02-11T02:04:27.247Z,87.60
2023-02-11T02:06:51.013Z,85.40
2023-02-11T02:09:15.807Z,83.40
2023-02-11T02:11:28.209Z,74.20
2023-02-11T02:13:40.102Z,80.50
2023-02-11T02:15:58.035Z,72.90
2023-02-11T02:18:29.590Z,89.00
2023-02-11T02:21:08.205Z,82.00
2023-02-11T02:23:48.579Z,85.50
2023-02-11T02:26:16.430Z,80.90
2023-02-11T02:29:13.997Z,91.20
2023-02-11T02:31:58.858Z,82.60
2023-02-11T02:34:25.905Z,88.60
2023-02-11T02:36:48.246Z,83.00
2023-02-11T02:39:15.802Z,83.20
2023-02-11T02:41:33.751Z,80.90
2023-02-11T02:43:49.315Z,82.50
2023-02-11T02:46:15.282Z,76.10
2023-02-11T02:48:33.588Z,83.20
2023-02-11T02:50:46.702Z,86.90
2023-02-11T02:53:17.032Z,85.30
2023-02-11T02:55:41.722Z,83.40
2023-02-11T02:58:13.581Z,88.90
2023-02-11T03:00:45.108Z,78.50
2023-02-11T03:03:09.016Z,88.60
2023-02-11T03:05:44.454Z,83.50
2023-02-11T03:08:09.394Z,80.40
2023-02-11T03:10:27.717Z,75.90
2023-02-11T03:14:52.915Z,85.60
2023-02-11T03:17:08.523Z,85.80
2023-02-11T03:19:29.806Z,79.10
2023-02-11T03:21:44.252Z,79.00
2023-02-11T03:24:00.775Z,90.10
2023-02-11T03:26:22.992Z,81.30
2023-02-11T03:28:42.671Z,75.30
2023-02-11T03:31:04.557Z,80.30
2023-02-11T03:33:30.720Z,79.50
2023-02-11T03:35:51.786Z,86.00
2023-02-11T03:38:10.806Z,79.70
2023-02-11T03:40:26.699Z,82.20
2023-02-11T03:42:43.808Z,93.10
2023-02-11T03:45:09.674Z,80.30
2023-02-11T03:47:26.412Z,91.10
2023-02-11T03:49:40.991Z,83.80
2023-02-11T03:51:54.087Z,87.00
2023-02-11T03:54:11.618Z,85.10
2023-02-11T03:56:28.829Z,81.00
2023-02-11T03:58:40.620Z,86.60
2023-02-11T04:00:53.047Z,78.00
2023-02-11T04:03:06.783Z,85.60
2023-02-11T04:05:18.555Z,87.40
2023-02-11T04:07:31.674Z,88.40
2023-02-11T04:09:44.690Z,78.70
2023-02-11T04:11:57.298Z,82.90
2023-02-11T04:14:09.235Z,86.10
2023-02-11T04:16:21.540Z,80.70
2023-02-11T04:18:33.384Z,87.00
2023-02-11T04:20:45.298Z,89.80
2023-02-11T04:22:57.171Z,83.00
2023-02-11T04:25:09.886Z,83.10
2023-02-11T04:27:21.881Z,89.40
2023-02-11T04:29:33.665Z,80.70
2023-02-11T04:31:45.617Z,85.40
2023-02-11T04:33:57.564Z,89.70
2023-02-11T04:36:09.252Z,101.30
2023-02-11T04:38:24.208Z,94.10
2023-02-11T04:40:35.995Z,92.30
2023-02-11T04:42:47.683Z,95.30
2023-02-11T04:44:59.476Z,96.60
2023-02-11T04:47:13.682Z,93.50
2023-02-11T04:49:25.720Z,90.50
2023-02-11T04:51:37.607Z,94.50
2023-02-11T04:53:49.297Z,93.60
2023-02-11T04:56:01.188Z,94.90
2023-02-11T04:58:12.773Z,91.40
2023-02-11T05:00:24.771Z,90.20
2023-02-11T05:02:36.556Z,92.40
2023-02-11T05:04:48.551Z,106.00
2023-02-11T05:07:00.238Z,98.50
2023-02-11T05:09:12.861Z,96.30
2023-02-11T05:11:25.872Z,96.00
2023-02-11T05:13:37.655Z,92.70
2023-02-11T05:15:50.106Z,102.70
2023-02-11T05:18:02.158Z,111.00
2023-02-11T05:20:14.482Z,98.30
2023-02-11T05:22:26.248Z,112.80
2023-02-11T05:24:37.936Z,105.80
2023-02-11T05:26:49.725Z,102.30
2023-02-11T05:29:01.930Z,103.80
2023-02-11T05:31:14.931Z,113.00
2023-02-11T05:33:27.040Z,115.30
2023-02-11T05:35:39.141Z,104.20
2023-02-11T05:37:51.030Z,103.40
2023-02-11T05:40:02.929Z,108.60
2023-02-11T05:42:15.019Z,110.20
2023-02-11T05:44:26.814Z,112.70
2023-02-11T05:46:38.430Z,111.50
2023-02-11T05:48:50.798Z,117.30
2023-02-11T05:51:02.821Z,113.80
2023-02-11T05:53:15.299Z,105.50
2023-02-11T05:55:27.398Z,105.10
2023-02-11T05:57:39.290Z,110.20
2023-02-11T05:59:50.877Z,117.00
2023-02-11T06:02:02.981Z,111.40
2023-02-11T06:04:15.073Z,108.20
2023-02-11T06:06:27.075Z,108.50
2023-02-11T06:08:39.777Z,159.90
2023-02-11T06:10:52.080Z,135.90
2023-02-11T06:13:04.595Z,121.50
2023-02-11T06:15:16.378Z,120.70
2023-02-11T06:17:32.056Z,125.10
2023-02-11T06:19:44.459Z,115.00
2023-02-11T06:21:56.454Z,118.50
2023-02-11T06:24:08.550Z,114.00
2023-02-11T06:26:23.495Z,123.00
2023-02-11T06:28:36.330Z,132.10
2023-02-11T06:30:48.353Z,320.70
2023-02-11T06:33:00.219Z,170.10
2023-02-11T06:35:14.414Z,141.00
2023-02-11T06:37:26.157Z,179.10
2023-02-11T06:39:38.250Z,336.50
2023-02-11T06:41:49.946Z,378.60
2023-02-11T06:44:01.727Z,216.30
2023-02-11T06:46:13.960Z,165.60
2023-02-11T06:48:25.716Z,145.50
2023-02-11T06:50:37.304Z,143.20
2023-02-11T06:52:49.707Z,127.30
2023-02-11T06:55:01.403Z,141.60
2023-02-11T06:57:13.182Z,133.90
2023-02-11T06:59:25.383Z,139.20
2023-02-11T07:01:37.090Z,147.40
2023-02-11T07:03:48.961Z,150.80
2023-02-11T07:06:00.751Z,185.70
2023-02-11T07:08:13.055Z,193.20
2023-02-11T07:10:25.174Z,185.30
2023-02-11T07:12:37.451Z,169.00
2023-02-11T07:14:49.346Z,164.50
2023-02-11T07:17:01.647Z,166.90
2023-02-11T07:19:13.641Z,155.40
2023-02-11T07:21:25.635Z,171.70
2023-02-11T07:23:38.255Z,170.40
2023-02-11T07:25:50.174Z,164.70
2023-02-11T07:28:04.114Z,156.30
2023-02-11T07:30:15.969Z,186.50
2023-02-11T07:32:27.763Z,171.70
2023-02-11T07:34:39.979Z,152.00
2023-02-11T07:36:52.070Z,189.80
2023-02-11T07:39:04.356Z,170.70
2023-02-11T07:41:20.857Z,194.00
2023-02-11T07:43:33.889Z,169.30
2023-02-11T07:45:45.974Z,161.20
2023-02-11T07:47:58.182Z,172.50
2023-02-11T07:50:10.474Z,189.30
2023-02-11T07:52:22.776Z,180.60
2023-02-11T07:54:34.772Z,173.50
2023-02-11T07:56:46.500Z,189.00
2023-02-11T07:59:02.502Z,181.60
2023-02-11T08:01:22.731Z,176.40
2023-02-11T08:03:36.283Z,219.50
2023-02-11T08:05:47.956Z,207.80
2023-02-11T08:08:00.050Z,213.90
2023-02-11T08:10:12.049Z,206.70
2023-02-11T08:12:23.633Z,294.90
2023-02-11T08:14:35.529Z,241.00
2023-02-11T08:16:47.341Z,216.50
2023-02-11T08:19:02.405Z,208.60
2023-02-11T08:21:14.267Z,193.50
2023-02-11T08:23:26.466Z,184.30
2023-02-11T08:25:38.360Z,210.50
2023-02-11T08:27:50.355Z,188.20
2023-02-11T08:30:02.144Z,193.20
2023-02-11T08:32:13.762Z,194.90
2023-02-11T08:34:26.037Z,187.90
2023-02-11T08:36:39.462Z,176.10
2023-02-11T08:38:51.483Z,185.10
2023-02-11T08:41:03.856Z,175.30
2023-02-11T08:43:15.651Z,201.80
2023-02-11T08:45:27.649Z,181.60
2023-02-11T08:47:40.270Z,173.50
2023-02-11T08:49:52.555Z,171.00
2023-02-11T08:52:04.656Z,192.30
2023-02-11T08:54:16.755Z,162.70
2023-02-11T08:56:31.526Z,170.40
2023-02-11T08:58:43.603Z,184.80
2023-02-11T09:00:55.965Z,182.10
2023-02-11T09:03:08.108Z,184.10
2023-02-11T09:05:19.705Z,191.10
2023-02-11T09:07:31.380Z,196.70
2023-02-11T09:09:43.069Z,197.70
2023-02-11T09:11:57.434Z,205.30
2023-02-11T09:14:16.802Z,215.80
2023-02-11T09:16:32.178Z,317.00
2023-02-11T09:18:45.891Z,294.00
2023-02-11T09:21:11.119Z,241.70
2023-02-11T09:23:23.274Z,230.70
2023-02-11T09:25:35.197Z,244.10
2023-02-11T09:27:46.981Z,199.70
2023-02-11T09:29:58.666Z,191.10
2023-02-11T09:32:10.956Z,174.70
2023-02-11T09:34:23.069Z,188.00
2023-02-11T09:36:37.783Z,181.80
2023-02-11T09:38:49.908Z,180.20
2023-02-11T09:41:04.215Z,169.10
2023-02-11T09:43:33.487Z,202.00
2023-02-11T09:45:45.431Z,175.10
2023-02-11T09:48:06.343Z,188.40
2023-02-11T09:50:36.500Z,191.80
2023-02-11T09:53:07.326Z,220.50
2023-02-11T09:55:25.269Z,248.80
2023-02-11T09:57:37.665Z,268.10
2023-02-11T09:59:50.587Z,209.30
2023-02-11T10:02:14.663Z,198.00
2023-02-11T10:05:20.088Z,195.80
2023-02-11T10:07:55.144Z,182.80
2023-02-11T10:10:10.117Z,197.90
2023-02-11T10:12:53.745Z,197.70
2023-02-11T10:15:15.264Z,231.90
2023-02-11T10:17:52.248Z,198.50
2023-02-11T10:20:23.082Z,201.50
2023-02-11T10:22:41.732Z,194.00
2023-02-11T10:25:00.214Z,183.00
2023-02-11T10:27:20.688Z,197.20
2023-02-11T10:29:32.625Z,192.20
2023-02-11T10:31:46.713Z,168.90
2023-02-11T10:34:13.088Z,172.90
2023-02-11T10:36:31.281Z,179.30
2023-02-11T10:38:43.686Z,182.30
2023-02-11T10:40:55.377Z,169.60
2023-02-11T10:43:12.707Z,175.60
2023-02-11T10:45:40.461Z,174.50
2023-02-11T10:47:52.348Z,171.40
2023-02-11T10:50:25.028Z,156.60
2023-02-11T10:52:36.717Z,161.60
2023-02-11T10:55:01.102Z,163.40
2023-02-11T10:57:20.109Z,152.90
2023-02-11T10:59:40.145Z,152.30
2023-02-11T11:01:56.518Z,155.00
2023-02-11T11:04:30.823Z,172.30
2023-02-11T11:06:42.854Z,173.40
2023-02-11T11:08:54.746Z,174.20
2023-02-11T11:11:12.995Z,166.30
2023-02-11T11:13:35.836Z,165.20
2023-02-11T11:16:20.347Z,154.70
2023-02-11T11:18:32.699Z,156.70
2023-02-11T11:21:00.073Z,149.00
2023-02-11T11:23:19.066Z,197.70
2023-02-11T11:25:31.106Z,221.30
2023-02-11T11:27:53.053Z,160.30
2023-02-11T11:30:05.276Z,174.80
2023-02-11T11:32:29.420Z,165.00
2023-02-11T11:34:49.533Z,162.40
2023-02-11T11:37:26.410Z,146.90
2023-02-11T11:39:40.733Z,150.70
2023-02-11T11:42:01.796Z,146.80
2023-02-11T11:44:37.992Z,137.50
2023-02-11T11:47:07.903Z,134.30
2023-02-11T11:49:59.356Z,141.20
2023-02-11T11:53:22.658Z,144.60
2023-02-11T11:56:28.919Z,136.40
2023-02-11T11:58:59.571Z,140.10
2023-02-11T12:01:44.681Z,150.10
2023-02-11T12:04:17.865Z,145.40
2023-02-11T12:06:42.850Z,127.00
2023-02-11T12:09:10.114Z,134.30
2023-02-11T12:12:06.850Z,139.00
2023-02-11T12:14:30.516Z,129.20
2023-02-11T12:17:19.888Z,128.80
2023-02-11T12:19:51.139Z,126.70
2023-02-11T12:22:34.244Z,142.00
2023-02-11T12:25:11.453Z,129.20
2023-02-11T12:27:29.233Z,138.20
2023-02-11T12:30:13.711Z,135.80
2023-02-11T12:32:41.806Z,127.30
2023-02-11T12:35:25.446Z,122.00
2023-02-11T12:38:15.890Z,122.10
2023-02-11T12:40:37.091Z,133.00
2023-02-11T12:43:23.854Z,137.80
2023-02-11T12:46:11.780Z,117.90
2023-02-11T12:48:39.261Z,120.60
2023-02-11T12:51:07.322Z,120.20
2023-02-11T12:54:01.610Z,128.70
2023-02-11T12:56:26.929Z,116.40
2023-02-11T12:58:45.252Z,117.00
2023-02-11T13:01:09.458Z,109.50
2023-02-11T13:03:27.478Z,119.40
2023-02-11T13:05:51.508Z,115.70
2023-02-11T13:08:23.830Z,113.40
2023-02-11T13:10:38.187Z,128.50
2023-02-11T13:13:11.476Z,125.50
2023-02-11T13:15:26.031Z,109.60
2023-02-11T13:17:47.774Z,113.50
2023-02-11T13:20:12.856Z,119.60
2023-02-11T13:22:34.881Z,112.50
2023-02-11T13:25:23.332Z,119.50
2023-02-11T13:27:58.831Z,105.70
2023-02-11T13:30:20.191Z,98.00
2023-02-11T13:32:54.206Z,107.30
2023-02-11T13:35:26.165Z,95.70
2023-02-11T13:37:39.903Z,113.80
2023-02-11T13:40:05.279Z,97.30
2023-02-11T13:42:18.760Z,84.90
2023-02-11T13:44:34.832Z,91.20
2023-02-11T13:46:59.845Z,96.80
2023-02-11T13:49:21.141Z,91.20
2023-02-11T13:51:36.206Z,87.40
2023-02-11T13:53:56.195Z,93.00
2023-02-11T13:56:13.032Z,88.90
2023-02-11T13:58:27.751Z,82.60
2023-02-11T14:00:39.660Z,87.00
2023-02-11T14:03:29.998Z,86.20
2023-02-11T14:06:29.955Z,93.60
2023-02-11T14:09:01.936Z,90.60
2023-02-11T14:11:32.682Z,88.00
2023-02-11T14:13:47.884Z,81.90
2023-02-11T14:16:04.531Z,84.00
2023-02-11T14:18:58.313Z,87.30
2023-02-11T14:21:20.745Z,80.90
2023-02-11T14:23:32.783Z,89.30
2023-02-11T14:25:51.930Z,84.90
2023-02-11T14:28:16.751Z,82.10
2023-02-11T14:30:47.065Z,89.70
2023-02-11T14:33:20.931Z,79.00
2023-02-11T14:36:00.574Z,69.70
2023-02-11T14:38:34.484Z,70.90
2023-02-11T14:41:22.625Z,70.00
2023-02-11T14:43:48.238Z,68.00
2023-02-11T14:46:03.069Z,76.60
2023-02-11T14:48:17.382Z,75.80
2023-02-11T14:50:38.355Z,98.90
2023-02-11T14:52:51.485Z,145.30
2023-02-11T14:55:18.934Z,113.30
2023-02-11T14:57:30.965Z,90.00
2023-02-11T15:00:02.644Z,106.60
2023-02-11T15:02:28.974Z,102.70
2023-02-11T15:04:44.132Z,88.60
2023-02-11T15:06:59.615Z,89.40
2023-02-11T15:09:32.443Z,109.00
2023-02-11T15:11:48.070Z,101.80
2023-02-11T15:14:11.143Z,106.80
2023-02-11T15:16:24.974Z,95.40
2023-02-11T15:18:44.897Z,78.70
2023-02-11T15:20:56.892Z,95.40
2023-02-11T15:23:20.515Z,92.90
2023-02-11T15:25:34.276Z,85.70
2023-02-11T15:27:46.085Z,88.30
2023-02-11T15:29:57.875Z,90.30
2023-02-11T15:32:10.126Z,85.50
2023-02-11T15:34:22.175Z,90.80
2023-02-11T15:36:36.527Z,91.90
2023-02-11T15:39:27.531Z,92.70
2023-02-11T15:41:39.638Z,85.40
2023-02-11T15:43:51.950Z,102.90
2023-02-11T15:46:03.972Z,100.00
2023-02-11T15:48:15.787Z,88.80
2023-02-11T15:50:40.894Z,85.10
2023-02-11T15:52:55.341Z,94.20
2023-02-11T15:55:13.821Z,81.40
2023-02-11T15:57:26.430Z,86.20
2023-02-11T15:59:40.683Z,107.20
2023-02-11T16:01:54.716Z,104.70
2023-02-11T16:04:06.905Z,86.00
2023-02-11T16:06:22.533Z,79.00
2023-02-11T16:08:35.633Z,80.40
2023-02-11T16:11:03.416Z,102.30
2023-02-11T16:13:20.524Z,89.80
2023-02-11T16:15:38.844Z,80.50
2023-02-11T16:17:53.084Z,94.30
2023-02-11T16:20:06.822Z,77.30
2023-02-11T16:22:30.382Z,84.90
2023-02-11T16:24:43.610Z,85.20
2023-02-11T16:26:59.906Z,101.90
2023-02-11T16:29:15.633Z,100.50
2023-02-11T16:31:34.163Z,117.60
2023-02-11T16:33:46.129Z,83.70
2023-02-11T16:35:57.979Z,73.40
2023-02-11T16:38:09.547Z,74.40
2023-02-11T16:40:21.401Z,79.50
2023-02-11T16:42:33.393Z,77.10
2023-02-11T16:44:45.705Z,76.70
2023-02-11T16:47:03.388Z,86.00
2023-02-11T16:49:26.314Z,95.90
2023-02-11T16:51:41.394Z,144.60
2023-02-11T16:53:53.436Z,130.70
2023-02-11T16:56:05.749Z,98.50
2023-02-11T16:58:17.835Z,117.90
2023-02-11T17:00:30.289Z,85.90
2023-02-11T17:02:43.461Z,91.50
2023-02-11T17:04:58.644Z,78.80
2023-02-11T17:07:10.526Z,78.80
2023-02-11T17:09:30.317Z,79.10
2023-02-11T17:11:43.220Z,74.60
2023-02-11T17:13:55.224Z,73.40
2023-02-11T17:16:16.086Z,104.20
2023-02-11T17:18:28.215Z,169.30
2023-02-11T17:20:42.985Z,125.10
2023-02-11T17:22:55.068Z,109.20
2023-02-11T17:25:08.187Z,117.50
2023-02-11T17:27:20.077Z,132.20
2023-02-11T17:29:32.386Z,94.70
2023-02-11T17:31:45.046Z,84.10
2023-02-11T17:33:56.777Z,79.50
2023-02-11T17:36:10.617Z,80.40
2023-02-11T17:38:22.512Z,79.50
2023-02-11T17:40:34.811Z,79.70
2023-02-11T17:42:46.806Z,71.30
2023-02-11T17:44:59.013Z,72.80
2023-02-11T17:47:11.479Z,65.70
2023-02-11T17:49:23.305Z,72.90
2023-02-11T17:51:38.236Z,70.00
2023-02-11T17:53:50.058Z,72.50
2023-02-11T17:56:06.461Z,63.50
2023-02-11T17:58:18.352Z,61.70
2023-02-11T18:00:31.061Z,61.20
2023-02-11T18:02:42.546Z,63.00
2023-02-11T18:04:57.685Z,65.40
2023-02-11T18:07:10.323Z,62.70
2023-02-11T18:09:22.517Z,58.20
2023-02-11T18:11:37.753Z,66.60
2023-02-11T18:13:54.524Z,69.50
2023-02-11T18:16:16.063Z,69.10
2023-02-11T18:18:28.519Z,74.00
2023-02-11T18:20:42.946Z,67.30
2023-02-11T18:22:55.115Z,65.40
2023-02-11T18:25:08.909Z,62.40
2023-02-11T18:27:21.518Z,58.30
2023-02-11T18:29:33.528Z,68.10
2023-02-11T18:31:45.481Z,61.10
2023-02-11T18:33:58.020Z,60.40
2023-02-11T18:36:12.666Z,58.40
2023-02-11T18:38:25.431Z,67.10
2023-02-11T18:40:40.981Z,79.80
2023-02-11T18:42:53.065Z,68.60
2023-02-11T18:45:09.503Z,59.10
2023-02-11T18:47:21.864Z,58.60
2023-02-11T18:49:35.804Z,58.40
2023-02-11T18:51:47.839Z,59.10
2023-02-11T18:54:02.046Z,59.10
2023-02-11T18:56:17.428Z,56.60
2023-02-11T18:58:29.523Z,56.40
2023-02-11T19:00:48.684Z,59.30
2023-02-11T19:03:04.368Z,50.60
2023-02-11T19:05:16.057Z,49.90
2023-02-11T19:07:27.840Z,50.30
2023-02-11T19:09:39.627Z,49.50
2023-02-11T19:11:54.126Z,44.70
2023-02-11T19:14:10.367Z,54.60
2023-02-11T19:16:22.400Z,44.70
2023-02-11T19:18:36.211Z,48.70
2023-02-11T19:20:47.999Z,57.80
2023-02-11T19:23:01.018Z,46.80
2023-02-11T19:25:13.954Z,50.90
2023-02-11T19:27:26.849Z,47.20
2023-02-11T19:29:39.132Z,49.20
2023-02-11T19:31:51.308Z,49.10
2023-02-11T19:34:04.171Z,55.80
2023-02-11T19:36:21.486Z,76.40
2023-02-11T19:38:34.604Z,82.00
2023-02-11T19:40:47.224Z,81.20
2023-02-11T19:42:59.208Z,129.30
2023-02-11T19:45:11.354Z,113.20
2023-02-11T19:47:27.961Z,295.80
2023-02-11T19:49:40.209Z,239.60
2023-02-11T19:51:53.580Z,224.10
2023-02-11T19:54:06.967Z,187.30
2023-02-11T19:56:20.845Z,114.70
2023-02-11T19:58:33.795Z,103.90
2023-02-11T20:00:45.653Z,105.30
2023-02-11T20:02:57.636Z,70.40
2023-02-11T20:05:09.909Z,74.70
2023-02-11T20:07:21.562Z,70.60
2023-02-11T20:09:33.904Z,69.40
2023-02-11T20:11:49.427Z,342.40
2023-02-11T20:14:02.424Z,278.70
2023-02-11T20:16:18.007Z,448.10
2023-02-11T20:18:29.860Z,216.50
2023-02-11T20:20:41.751Z,131.30
2023-02-11T20:22:53.319Z,128.00
2023-02-11T20:25:05.740Z,124.00
2023-02-11T20:27:19.973Z,158.80
2023-02-11T20:29:32.187Z,119.90
2023-02-11T20:31:48.483Z,167.40
2023-02-11T20:34:01.610Z,389.30
2023-02-11T20:36:16.670Z,379.40
2023-02-11T20:38:29.281Z,214.10
2023-02-11T20:40:41.274Z,160.90
2023-02-11T20:42:52.862Z,106.40
2023-02-11T20:45:06.619Z,125.20
2023-02-11T20:47:27.296Z,75.50
2023-02-11T20:49:39.594Z,86.70
2023-02-11T20:51:53.938Z,87.20
2023-02-11T20:54:07.001Z,68.10
2023-02-11T20:56:22.718Z,97.40
2023-02-11T20:58:36.222Z,132.60
2023-02-11T21:00:48.176Z,93.10
2023-02-11T21:03:00.414Z,68.50
2023-02-11T21:05:12.779Z,51.90
2023-02-11T21:07:24.785Z,56.20
2023-02-11T21:09:39.121Z,56.90
2023-02-11T21:11:53.158Z,58.80
2023-02-11T21:14:12.120Z,66.80
2023-02-11T21:16:24.774Z,50.80
2023-02-11T21:18:38.072Z,50.70
2023-02-11T21:20:50.666Z,53.50
2023-02-11T21:23:03.320Z,45.30
2023-02-11T21:25:24.024Z,44.30
2023-02-11T21:27:38.023Z,52.00
2023-02-11T21:29:54.554Z,46.10
2023-02-11T21:32:09.121Z,49.30
2023-02-11T21:34:21.394Z,51.70
2023-02-11T21:36:33.684Z,40.40
2023-02-11T21:38:45.782Z,46.00
2023-02-11T21:41:04.325Z,52.40
2023-02-11T21:43:16.454Z,64.10
2023-02-11T21:45:30.754Z,83.40
2023-02-11T21:47:43.240Z,61.70
2023-02-11T21:49:55.280Z,56.30
2023-02-11T21:52:07.064Z,42.10
2023-02-11T21:54:21.619Z,45.00
2023-02-11T21:56:35.585Z,40.40
2023-02-11T21:58:47.477Z,50.40
2023-02-11T22:00:59.631Z,48.90
2023-02-11T22:03:12.431Z,49.20
2023-02-11T22:05:24.361Z,40.90
2023-02-11T22:07:36.662Z,42.00
2023-02-11T22:09:48.859Z,46.00
2023-02-11T22:12:01.060Z,38.30
2023-02-11T22:14:13.395Z,50.30
2023-02-11T22:16:27.124Z,53.10
2023-02-11T22:18:39.316Z,50.50
2023-02-11T22:21:02.379Z,51.60
2023-02-11T22:23:14.091Z,52.90
2023-02-11T22:25:25.931Z,108.40
2023-02-11T22:27:38.129Z,98.20
2023-02-11T22:29:50.532Z,82.80
2023-02-11T22:32:02.255Z,51.00
2023-02-11T22:34:14.214Z,62.00
2023-02-11T22:36:32.655Z,52.40
2023-02-11T22:38:44.449Z,43.80
2023-02-11T22:40:58.693Z,48.40
2023-02-11T22:43:10.687Z,47.70
2023-02-11T22:45:22.352Z,55.90
2023-02-11T22:47:34.365Z,65.00
2023-02-11T22:49:46.463Z,119.90
2023-02-11T22:51:58.460Z,110.50
2023-02-11T22:54:16.164Z,73.00
2023-02-11T22:56:31.003Z,61.50
2023-02-11T22:58:42.838Z,52.40
2023-02-11T23:00:54.529Z,55.80
2023-02-11T23:03:08.578Z,60.00
2023-02-11T23:05:20.562Z,52.80
2023-02-11T23:07:32.671Z,58.10
2023-02-11T23:09:44.554Z,54.40
2023-02-11T23:11:57.999Z,52.90
2023-02-11T23:14:12.411Z,60.60
2023-02-11T23:16:28.629Z,54.20
2023-02-11T23:18:42.825Z,53.50
2023-02-11T23:20:54.269Z,49.30
2023-02-11T23:23:06.563Z,47.20
2023-02-11T23:25:18.214Z,64.10
2023-02-11T23:27:30.140Z,60.50
2023-02-11T23:29:41.823Z,51.80
2023-02-11T23:31:53.514Z,48.60
2023-02-11T23:34:07.353Z,50.20
2023-02-11T23:36:21.536Z,52.20
2023-02-11T23:38:33.064Z,42.70
2023-02-11T23:40:44.644Z,54.90
2023-02-11T23:42:56.272Z,72.80
2023-02-11T23:45:09.053Z,112.80
2023-02-11T23:47:20.759Z,141.10
2023-02-11T23:49:32.955Z,115.50
2023-02-11T23:51:44.797Z,104.00
2023-02-11T23:53:56.537Z,119.80
2023-02-11T23:56:17.212Z,150.80
2023-02-11T23:58:29.432Z,127.60
